createdAt,value
2017-08-08T00:00:30.299Z,96290.84
2017-08-08T00:02:56.155Z,96294.42
2017-08-08T00:05:22.099Z,96290.10
2017-08-08T00:07:47.968Z,96286.45
2017-08-08T00:10:13.787Z,96291.83
2017-08-08T00:12:39.648Z,96285.54
2017-08-08T00:15:05.567Z,96289.44
2017-08-08T00:17:31.399Z,96291.89
2017-08-08T00:19:57.231Z,96288.35
2017-08-08T00:22:23.096Z,96294.61
2017-08-08T00:24:48.925Z,96301.25
2017-08-08T00:27:14.750Z,96291.63
2017-08-08T00:29:40.708Z,96295.45
2017-08-08T00:32:06.531Z,96287.89
2017-08-08T00:34:32.427Z,96284.97
2017-08-08T00:36:58.351Z,96274.54
2017-08-08T00:39:24.172Z,96274.13
2017-08-08T00:41:50.040Z,96272.59
2017-08-08T00:44:15.871Z,96274.13
2017-08-08T00:46:43.378Z,96273.31
2017-08-08T00:49:09.357Z,96268.73
2017-08-08T00:51:35.188Z,96266.97
2017-08-08T00:54:01.006Z,96265.31
2017-08-08T00:56:26.856Z,96263.14
2017-08-08T00:58:52.760Z,96253.81
2017-08-08T01:01:18.604Z,96253.19
2017-08-08T01:03:44.424Z,96263.77
2017-08-08T01:06:10.259Z,96264.20
2017-08-08T01:08:36.105Z,96262.12
2017-08-08T01:11:01.956Z,96258.66
2017-08-08T01:13:27.892Z,96254.96
2017-08-08T01:15:53.719Z,96249.28
2017-08-08T01:18:19.581Z,96259.11
2017-08-08T01:20:45.450Z,96256.83
2017-08-08T01:23:11.343Z,96259.63
2017-08-08T01:25:37.198Z,96249.02
2017-08-08T01:28:03.076Z,96246.36
2017-08-08T01:30:28.932Z,96235.47
2017-08-08T01:32:54.871Z,96231.78
2017-08-08T01:35:20.743Z,96235.25
2017-08-08T01:37:46.575Z,96229.88
2017-08-08T01:40:12.539Z,96224.20
2017-08-08T01:42:38.368Z,96226.95
2017-08-08T01:45:04.196Z,96236.77
2017-08-08T01:47:30.066Z,96235.30
2017-08-08T01:49:55.978Z,96236.41
2017-08-08T01:52:21.829Z,96227.20
2017-08-08T01:54:47.665Z,96231.45
2017-08-08T01:57:13.523Z,96225.19
2017-08-08T01:59:39.349Z,96229.39
2017-08-08T02:02:05.302Z,96228.08
2017-08-08T02:04:31.164Z,96227.95
2017-08-08T02:06:57.103Z,96217.02
2017-08-08T02:09:22.978Z,96215.31
2017-08-08T02:11:48.804Z,96217.02
2017-08-08T02:14:14.635Z,96218.84
2017-08-08T02:16:40.480Z,96213.78
2017-08-08T02:19:06.419Z,96215.22
2017-08-08T02:21:32.275Z,96210.08
2017-08-08T02:23:58.088Z,96210.55
2017-08-08T02:26:23.924Z,96204.33
2017-08-08T02:28:49.788Z,96208.04
2017-08-08T02:31:15.712Z,96205.82
2017-08-08T02:33:41.543Z,96198.05
2017-08-08T02:36:07.385Z,96197.55
2017-08-08T02:38:33.231Z,96192.20
2017-08-08T02:40:59.080Z,96199.69
2017-08-08T02:43:25.031Z,96201.61
2017-08-08T02:45:50.832Z,96202.50
2017-08-08T02:48:16.688Z,96195.72
2017-08-08T02:50:42.541Z,96189.85
2017-08-08T02:53:08.364Z,96189.67
2017-08-08T02:55:34.330Z,96182.50
2017-08-08T02:58:00.195Z,96166.50
2017-08-08T03:00:26.003Z,96177.17
2017-08-08T03:02:51.897Z,96176.69
2017-08-08T03:05:17.785Z,96158.74
2017-08-08T03:07:43.626Z,96140.89
2017-08-08T03:10:09.472Z,96127.45
2017-08-08T03:12:35.334Z,96111.42
2017-08-08T03:15:01.140Z,96099.88
2017-08-08T03:17:26.954Z,96103.92
2017-08-08T03:19:52.798Z,96113.92
2017-08-08T03:22:18.608Z,96113.71
2017-08-08T03:24:44.606Z,96108.56
2017-08-08T03:27:10.411Z,96108.69
2017-08-08T03:29:36.223Z,96106.98
2017-08-08T03:32:02.094Z,96108.50
2017-08-08T03:34:28.052Z,96101.73
2017-08-08T03:36:53.895Z,96098.99
2017-08-08T03:39:19.754Z,96100.91
2017-08-08T03:41:45.675Z,96093.70
2017-08-08T03:44:11.500Z,96090.53
2017-08-08T03:46:37.360Z,96084.20
2017-08-08T03:49:03.219Z,96082.80
2017-08-08T03:51:29.054Z,96078.14
2017-08-08T03:53:55.011Z,96084.72
2017-08-08T03:56:20.824Z,96089.20
2017-08-08T03:58:46.631Z,96087.53
2017-08-08T04:01:12.507Z,96091.69
2017-08-08T04:03:38.523Z,96085.35
2017-08-08T04:06:04.330Z,96075.26
2017-08-08T04:08:30.374Z,96067.28
2017-08-08T04:10:56.167Z,96051.80
2017-08-08T04:13:22.019Z,96055.05
2017-08-08T04:15:48.005Z,96050.18
2017-08-08T04:18:13.809Z,96046.77
2017-08-08T04:20:39.642Z,96038.14
2017-08-08T04:23:05.440Z,96037.30
2017-08-08T04:25:31.216Z,96040.09
2017-08-08T04:27:57.120Z,96041.50
2017-08-08T04:30:22.905Z,96030.57
2017-08-08T04:32:48.696Z,96028.03
2017-08-08T04:35:14.474Z,96027.03
2017-08-08T04:37:40.397Z,96033.16
2017-08-08T04:40:06.227Z,96030.13
2017-08-08T04:42:32.058Z,96038.36
2017-08-08T04:44:57.952Z,96030.98
2017-08-08T04:47:23.877Z,96030.09
2017-08-08T04:49:49.709Z,96027.53
2017-08-08T04:52:15.700Z,96035.08
2017-08-08T04:54:41.497Z,96040.84
2017-08-08T04:57:07.383Z,96038.27
2017-08-08T04:59:33.417Z,96042.94
2017-08-08T05:01:59.376Z,96047.46
2017-08-08T05:04:25.201Z,96049.64
2017-08-08T05:06:51.041Z,96052.95
2017-08-08T05:09:16.813Z,96040.66
2017-08-08T05:11:42.780Z,96042.55
2017-08-08T05:14:08.593Z,96032.09
2017-08-08T05:16:34.512Z,96047.59
2017-08-08T05:19:00.343Z,96047.03
2017-08-08T05:21:26.385Z,96048.89
2017-08-08T05:23:52.403Z,96053.51
2017-08-08T05:26:18.231Z,96055.96
2017-08-08T05:28:44.198Z,96058.19
2017-08-08T05:31:10.045Z,96052.96
2017-08-08T05:33:36.089Z,96054.54
2017-08-08T05:36:01.868Z,96056.55
2017-08-08T05:38:27.654Z,96054.80
2017-08-08T05:40:53.468Z,96050.40
2017-08-08T05:45:50.997Z,96057.11
2017-08-08T05:48:16.834Z,96054.95
2017-08-08T05:50:42.705Z,96042.48
2017-08-08T05:53:08.534Z,96034.99
2017-08-08T05:55:34.362Z,96039.61
2017-08-08T05:58:00.194Z,96032.69
2017-08-08T06:00:25.984Z,96023.86
2017-08-08T06:02:51.773Z,96028.11
2017-08-08T06:05:17.659Z,96029.31
2017-08-08T06:07:43.440Z,96030.02
2017-08-08T06:10:09.278Z,96023.18
2017-08-08T06:12:35.097Z,96030.97
2017-08-08T06:15:00.868Z,96044.46
2017-08-08T06:17:26.648Z,96044.22
2017-08-08T06:19:52.481Z,96045.20
2017-08-08T06:22:18.316Z,96048.53
2017-08-08T06:24:44.123Z,96051.28
2017-08-08T06:27:09.909Z,96040.38
2017-08-08T06:29:35.794Z,96032.32
2017-08-08T06:32:01.636Z,96036.63
2017-08-08T06:34:27.445Z,96021.70
2017-08-08T06:36:53.241Z,96023.69
2017-08-08T06:39:19.069Z,96017.33
2017-08-08T06:41:44.856Z,96017.83
2017-08-08T06:44:10.635Z,96012.28
2017-08-08T06:46:36.493Z,96011.75
2017-08-08T06:49:02.289Z,96024.09
2017-08-08T06:51:28.196Z,96006.24
2017-08-08T06:53:53.993Z,96003.92
2017-08-08T06:56:19.885Z,96008.95
2017-08-08T06:58:45.749Z,96026.55
2017-08-08T07:01:11.657Z,96029.28
2017-08-08T07:03:37.483Z,96032.89
2017-08-08T07:06:03.360Z,96030.30
2017-08-08T07:08:29.273Z,96026.22
2017-08-08T07:10:55.055Z,96027.08
2017-08-08T07:13:20.874Z,96016.34
2017-08-08T07:15:46.739Z,96018.12
2017-08-08T07:18:12.569Z,96019.62
2017-08-08T07:20:38.394Z,96012.51
2017-08-08T07:23:04.172Z,96011.48
2017-08-08T07:25:29.998Z,96008.23
2017-08-08T07:27:55.781Z,96011.70
2017-08-08T07:30:21.753Z,96019.81
2017-08-08T07:32:47.635Z,96017.66
2017-08-08T07:35:13.536Z,96027.09
2017-08-08T07:37:39.383Z,96034.41
2017-08-08T07:40:05.187Z,96034.50
2017-08-08T07:42:31.010Z,96033.09
2017-08-08T07:44:56.799Z,96050.98
2017-08-08T07:47:22.572Z,96051.86
2017-08-08T07:49:50.257Z,96042.95
2017-08-08T07:52:16.099Z,96048.16
2017-08-08T07:54:41.939Z,96048.84
2017-08-08T07:57:07.901Z,96054.56
2017-08-08T07:59:33.745Z,96050.47
2017-08-08T08:01:59.587Z,96055.66
2017-08-08T08:04:25.383Z,96054.58
2017-08-08T08:06:51.210Z,96052.28
2017-08-08T08:09:17.028Z,96044.83
2017-08-08T08:11:42.855Z,96033.30
2017-08-08T08:14:08.697Z,96034.35
2017-08-08T08:16:34.517Z,96024.73
2017-08-08T08:19:00.351Z,96034.38
2017-08-08T08:21:26.163Z,96033.75
2017-08-08T08:23:51.928Z,96045.65
2017-08-08T08:26:17.789Z,96044.81
2017-08-08T08:28:43.570Z,96044.78
2017-08-08T08:31:09.459Z,96053.40
2017-08-08T08:33:35.360Z,96049.91
2017-08-08T08:36:01.160Z,96050.98
2017-08-08T08:38:27.111Z,96048.70
2017-08-08T08:40:52.997Z,96055.83
2017-08-08T08:43:18.837Z,96060.89
2017-08-08T08:45:44.691Z,96063.36
2017-08-08T08:48:10.561Z,96064.13
2017-08-08T08:50:36.360Z,96070.03
2017-08-08T08:53:02.219Z,96069.70
2017-08-08T08:55:28.139Z,96067.64
2017-08-08T08:57:54.012Z,96073.89
2017-08-08T09:00:19.871Z,96074.78
2017-08-08T09:02:45.663Z,96070.52
2017-08-08T09:05:11.455Z,96069.61
2017-08-08T09:07:37.286Z,96075.84
2017-08-08T09:10:03.119Z,96069.23
2017-08-08T09:12:28.955Z,96069.38
2017-08-08T09:14:54.966Z,96077.70
2017-08-08T09:17:20.814Z,96093.02
2017-08-08T09:19:46.618Z,96101.45
2017-08-08T09:22:12.412Z,96096.55
2017-08-08T09:24:38.250Z,96105.26
2017-08-08T09:27:04.057Z,96105.78
2017-08-08T09:29:29.846Z,96099.52
2017-08-08T09:31:55.661Z,96088.30
2017-08-08T09:34:21.490Z,96097.91
2017-08-08T09:36:47.312Z,96099.42
2017-08-08T09:39:13.180Z,96091.28
2017-08-08T09:41:39.096Z,96097.92
2017-08-08T09:44:04.901Z,96112.47
2017-08-08T09:46:30.766Z,96118.90
2017-08-08T09:48:56.550Z,96132.09
2017-08-08T09:51:22.379Z,96144.84
2017-08-08T09:53:48.288Z,96155.03
2017-08-08T09:56:14.073Z,96172.33
2017-08-08T09:58:39.917Z,96173.52
2017-08-08T10:01:05.709Z,96168.98
2017-08-08T10:03:31.491Z,96163.86
2017-08-08T10:05:57.317Z,96160.78
2017-08-08T10:08:23.178Z,96165.34
2017-08-08T10:10:48.999Z,96168.58
2017-08-08T10:13:14.831Z,96158.66
2017-08-08T10:15:40.621Z,96158.16
2017-08-08T10:18:06.473Z,96157.58
2017-08-08T10:20:32.266Z,96154.97
2017-08-08T10:22:58.082Z,96143.83
2017-08-08T10:25:23.895Z,96130.92
2017-08-08T10:27:49.714Z,96118.72
2017-08-08T10:30:15.574Z,96108.88
2017-08-08T10:32:41.655Z,96110.86
2017-08-08T10:35:07.503Z,96099.95
2017-08-08T10:37:33.349Z,96084.33
2017-08-08T10:39:59.150Z,96061.92
2017-08-08T10:42:25.057Z,96027.85
2017-08-08T10:44:50.871Z,96017.34
2017-08-08T10:47:16.693Z,96016.72
2017-08-08T10:49:42.746Z,96019.94
2017-08-08T10:52:08.637Z,96028.68
2017-08-08T10:54:34.550Z,96044.89
2017-08-08T10:57:00.429Z,96077.81
2017-08-08T10:59:26.386Z,96106.56
2017-08-08T11:01:52.194Z,96123.09
2017-08-08T11:04:18.068Z,96152.96
2017-08-08T11:06:43.993Z,96141.80
2017-08-08T11:09:09.807Z,96157.41
2017-08-08T11:11:35.678Z,96190.20
2017-08-08T11:14:01.468Z,96219.16
2017-08-08T11:16:27.265Z,96213.70
2017-08-08T11:18:53.084Z,96195.00
2017-08-08T11:21:19.902Z,96199.47
2017-08-08T11:23:45.744Z,96207.66
2017-08-08T11:26:11.540Z,96202.81
2017-08-08T11:28:37.401Z,96179.36
2017-08-08T11:31:03.254Z,96203.44
2017-08-08T11:33:29.063Z,96209.50
2017-08-08T11:35:54.946Z,96200.89
2017-08-08T11:38:20.841Z,96213.83
2017-08-08T11:40:46.659Z,96216.62
2017-08-08T11:43:12.505Z,96221.34
2017-08-08T11:45:38.307Z,96211.86
2017-08-08T11:48:04.224Z,96214.16
2017-08-08T11:50:30.051Z,96217.06
2017-08-08T11:52:56.031Z,96214.36
2017-08-08T11:55:21.865Z,96207.02
2017-08-08T11:57:47.653Z,96215.88
2017-08-08T12:00:13.711Z,96214.42
2017-08-08T12:02:39.552Z,96214.09
2017-08-08T12:05:05.523Z,96212.28
2017-08-08T12:07:31.320Z,96197.05
2017-08-08T12:09:57.210Z,96182.84
2017-08-08T12:12:23.189Z,96183.63
2017-08-08T12:14:48.985Z,96176.27
2017-08-08T12:17:14.860Z,96184.81
2017-08-08T12:19:40.854Z,96184.91
2017-08-08T12:22:06.693Z,96181.98
2017-08-08T12:24:32.530Z,96182.47
2017-08-08T12:26:58.452Z,96174.33
2017-08-08T12:29:24.259Z,96161.48
2017-08-08T12:31:50.206Z,96167.59
2017-08-08T12:34:16.083Z,96171.52
2017-08-08T12:36:41.950Z,96164.70
2017-08-08T12:39:07.822Z,96160.37
2017-08-08T12:41:33.833Z,96168.97
2017-08-08T12:43:59.624Z,96153.31
2017-08-08T12:46:25.453Z,96137.53
2017-08-08T12:48:51.242Z,96137.81
2017-08-08T12:51:17.060Z,96128.12
2017-08-08T12:53:42.865Z,96123.65
2017-08-08T12:56:08.722Z,96130.38
2017-08-08T12:58:34.573Z,96146.81
2017-08-08T13:01:00.401Z,96140.89
2017-08-08T13:03:26.217Z,96154.39
2017-08-08T13:05:52.025Z,96126.34
2017-08-08T13:08:17.817Z,96140.66
2017-08-08T13:10:43.627Z,96167.33
2017-08-08T13:13:09.562Z,96170.30
2017-08-08T13:15:35.363Z,96155.52
2017-08-08T13:18:01.234Z,96155.78
2017-08-08T13:20:27.169Z,96167.45
2017-08-08T13:22:53.090Z,96163.25
2017-08-08T13:25:18.908Z,96175.30
2017-08-08T13:27:44.754Z,96175.56
2017-08-08T13:30:10.595Z,96171.17
2017-08-08T13:32:36.408Z,96161.22
2017-08-08T13:35:02.247Z,96178.81
2017-08-08T13:37:28.035Z,96173.86
2017-08-08T13:39:53.859Z,96181.19
2017-08-08T13:42:19.686Z,96178.25
2017-08-08T13:44:45.527Z,96191.63
2017-08-08T13:47:11.349Z,96212.08
2017-08-08T13:49:37.215Z,96208.95
2017-08-08T13:52:03.024Z,96215.44
2017-08-08T13:54:29.047Z,96215.27
2017-08-08T13:56:54.997Z,96202.70
2017-08-08T13:59:20.822Z,96203.66
2017-08-08T14:01:46.649Z,96214.37
2017-08-08T14:04:12.474Z,96216.66
2017-08-08T14:06:38.300Z,96224.14
2017-08-08T14:09:04.128Z,96215.64
2017-08-08T14:11:29.998Z,96233.52
2017-08-08T14:13:55.917Z,96242.69
2017-08-08T14:16:21.815Z,96228.58
2017-08-08T14:18:47.776Z,96224.41
2017-08-08T14:21:13.576Z,96210.81
2017-08-08T14:23:39.447Z,96216.44
2017-08-08T14:26:05.333Z,96216.25
2017-08-08T14:28:31.211Z,96221.08
2017-08-08T14:30:57.073Z,96228.08
2017-08-08T14:33:22.871Z,96243.25
2017-08-08T14:35:48.712Z,96246.19
2017-08-08T14:38:14.612Z,96245.77
2017-08-08T14:40:40.494Z,96230.84
2017-08-08T14:43:06.361Z,96218.00
2017-08-08T14:45:32.279Z,96222.40
2017-08-08T14:47:58.070Z,96226.80
2017-08-08T14:50:23.954Z,96233.33
2017-08-08T14:52:49.915Z,96225.35
2017-08-08T14:55:15.945Z,96225.89
2017-08-08T14:57:41.946Z,96241.78
2017-08-08T15:00:07.973Z,96240.25
2017-08-08T15:02:33.808Z,96245.98
2017-08-08T15:04:59.642Z,96239.48
2017-08-08T15:07:25.524Z,96241.92
2017-08-08T15:09:51.422Z,96239.65
2017-08-08T15:12:17.270Z,96230.47
2017-08-08T15:14:43.131Z,96231.31
2017-08-08T15:17:09.015Z,96221.37
2017-08-08T15:19:34.854Z,96238.02
2017-08-08T15:22:00.701Z,96237.56
2017-08-08T15:24:26.518Z,96227.45
2017-08-08T15:26:52.363Z,96237.03
2017-08-08T15:29:18.197Z,96242.25
2017-08-08T15:31:44.023Z,96236.09
2017-08-08T15:34:09.855Z,96239.00
2017-08-08T15:36:35.703Z,96231.34
2017-08-08T15:39:01.683Z,96230.64
2017-08-08T15:41:27.537Z,96228.71
2017-08-08T15:43:53.423Z,96217.68
2017-08-08T15:46:19.249Z,96208.93
2017-08-08T15:48:45.180Z,96198.46
2017-08-08T15:51:11.045Z,96206.54
2017-08-08T15:53:36.904Z,96203.52
2017-08-08T15:56:02.811Z,96208.00
2017-08-08T15:58:28.652Z,96189.16
2017-08-08T16:00:54.559Z,96192.23
2017-08-08T16:03:20.418Z,96196.66
2017-08-08T16:05:46.214Z,96195.28
2017-08-08T16:08:12.036Z,96201.94
2017-08-08T16:10:37.919Z,96206.48
2017-08-08T16:13:03.776Z,96191.74
2017-08-08T16:15:29.560Z,96196.19
2017-08-08T16:17:55.583Z,96213.22
2017-08-08T16:20:21.440Z,96211.52
2017-08-08T16:22:47.438Z,96213.85
2017-08-08T16:25:13.237Z,96207.53
2017-08-08T16:27:39.061Z,96204.59
2017-08-08T16:30:04.853Z,96205.53
2017-08-08T16:32:30.660Z,96208.32
2017-08-08T16:34:56.543Z,96212.48
2017-08-08T16:37:22.450Z,96210.98
2017-08-08T16:39:48.328Z,96217.42
2017-08-08T16:42:14.122Z,96219.98
2017-08-08T16:44:39.990Z,96222.09
2017-08-08T16:47:05.822Z,96209.01
2017-08-08T16:49:31.612Z,96216.44
2017-08-08T16:51:57.498Z,96209.85
2017-08-08T16:54:23.386Z,96218.14
2017-08-08T16:56:49.198Z,96225.03
2017-08-08T16:59:15.150Z,96219.73
2017-08-08T17:01:40.979Z,96235.03
2017-08-08T17:04:06.827Z,96235.68
2017-08-08T17:06:32.684Z,96237.36
2017-08-08T17:08:58.484Z,96234.91
2017-08-08T17:11:24.360Z,96241.31
2017-08-08T17:13:50.193Z,96241.05
2017-08-08T17:16:16.089Z,96238.05
2017-08-08T17:18:41.986Z,96235.07
2017-08-08T17:21:07.843Z,96239.95
2017-08-08T17:23:33.719Z,96247.11
2017-08-08T17:25:59.549Z,96260.53
2017-08-08T17:28:25.353Z,96271.12
2017-08-08T17:30:51.185Z,96277.35
2017-08-08T17:33:17.000Z,96275.55
2017-08-08T17:35:42.835Z,96266.02
2017-08-08T17:38:08.649Z,96269.50
2017-08-08T17:40:34.442Z,96273.69
2017-08-08T17:43:00.342Z,96274.26
2017-08-08T17:45:26.208Z,96273.17
2017-08-08T17:47:52.025Z,96277.98
2017-08-08T17:50:17.865Z,96293.00
2017-08-08T17:52:43.655Z,96302.43
2017-08-08T17:55:09.476Z,96312.58
2017-08-08T17:57:35.390Z,96314.17
2017-08-08T18:00:01.431Z,96307.78
2017-08-08T18:02:27.482Z,96304.84
2017-08-08T18:04:53.361Z,96306.10
2017-08-08T18:07:19.226Z,96305.84
2017-08-08T18:09:45.098Z,96302.88
2017-08-08T18:12:11.152Z,96308.75
2017-08-08T18:14:36.982Z,96325.19
2017-08-08T18:17:02.973Z,96324.28
2017-08-08T18:19:28.803Z,96319.44
2017-08-08T18:21:54.783Z,96314.30
2017-08-08T18:24:20.593Z,96302.38
2017-08-08T18:26:46.419Z,96297.42
2017-08-08T18:29:12.245Z,96300.47
2017-08-08T18:31:38.078Z,96304.58
2017-08-08T18:34:03.878Z,96317.48
2017-08-08T18:36:29.696Z,96310.54
2017-08-08T18:38:55.476Z,96306.70
2017-08-08T18:41:21.299Z,96319.08
2017-08-08T18:43:47.122Z,96314.55
2017-08-08T18:46:12.914Z,96314.30
2017-08-08T18:48:38.817Z,96310.67
2017-08-08T18:51:04.638Z,96316.50
2017-08-08T18:53:30.572Z,96314.45
2017-08-08T18:55:56.356Z,96310.78
2017-08-08T18:58:22.268Z,96325.77
2017-08-08T19:00:48.100Z,96329.17
2017-08-08T19:03:13.892Z,96322.15
2017-08-08T19:05:39.749Z,96326.53
2017-08-08T19:08:05.662Z,96312.87
2017-08-08T19:10:31.636Z,96320.70
2017-08-08T19:12:57.512Z,96324.89
2017-08-08T19:15:23.316Z,96341.25
2017-08-08T19:17:49.238Z,96340.66
2017-08-08T19:20:15.264Z,96349.49
2017-08-08T19:22:41.313Z,96364.48
2017-08-08T19:25:07.227Z,96369.86
2017-08-08T19:27:33.095Z,96371.17
2017-08-08T19:29:58.907Z,96374.24
2017-08-08T19:32:24.753Z,96386.16
2017-08-08T19:34:50.620Z,96387.41
2017-08-08T19:37:16.468Z,96385.19
2017-08-08T19:39:42.436Z,96382.03
2017-08-08T19:42:08.493Z,96382.91
2017-08-08T19:44:34.396Z,96395.29
2017-08-08T19:47:00.265Z,96389.43
2017-08-08T19:49:26.118Z,96392.76
2017-08-08T19:51:51.967Z,96391.78
2017-08-08T19:54:17.844Z,96400.38
2017-08-08T19:56:43.782Z,96409.19
2017-08-08T19:59:09.624Z,96409.98
2017-08-08T20:01:35.551Z,96400.55
2017-08-08T20:04:01.375Z,96392.70
2017-08-08T20:06:28.300Z,96396.77
2017-08-08T20:08:54.215Z,96395.08
2017-08-08T20:11:20.170Z,96400.25
2017-08-08T20:13:46.058Z,96407.17
2017-08-08T20:16:11.880Z,96406.86
2017-08-08T20:18:37.730Z,96406.34
2017-08-08T20:21:03.615Z,96402.95
2017-08-08T20:23:29.484Z,96407.59
2017-08-08T20:25:55.354Z,96416.38
2017-08-08T20:28:21.250Z,96407.91
2017-08-08T20:30:47.077Z,96419.22
2017-08-08T20:33:12.904Z,96430.57
2017-08-08T20:35:38.753Z,96431.98
2017-08-08T20:38:04.777Z,96429.05
2017-08-08T20:40:30.679Z,96438.17
2017-08-08T20:42:56.582Z,96439.91
2017-08-08T20:45:22.435Z,96443.12
2017-08-08T20:47:48.496Z,96442.49
2017-08-08T20:50:14.464Z,96445.92
2017-08-08T20:52:40.384Z,96445.64
2017-08-08T20:55:06.240Z,96452.55
2017-08-08T20:57:32.150Z,96450.36
2017-08-08T20:59:58.163Z,96440.23
2017-08-08T21:02:24.088Z,96449.66
2017-08-08T21:04:50.051Z,96459.04
2017-08-08T21:07:15.911Z,96464.19
2017-08-08T21:09:41.731Z,96462.84
2017-08-08T21:12:07.634Z,96469.55
2017-08-08T21:14:33.659Z,96482.72
2017-08-08T21:16:59.479Z,96476.48
2017-08-08T21:19:25.376Z,96476.27
2017-08-08T21:21:51.283Z,96477.96
2017-08-08T21:24:17.097Z,96476.78
2017-08-08T21:26:42.924Z,96480.59
2017-08-08T21:29:08.769Z,96476.56
2017-08-08T21:31:34.639Z,96475.67
2017-08-08T21:34:00.531Z,96467.64
2017-08-08T21:36:26.447Z,96476.78
2017-08-08T21:38:52.404Z,96481.23
2017-08-08T21:41:18.240Z,96490.45
2017-08-08T21:43:44.103Z,96486.47
2017-08-08T21:46:09.918Z,96485.48
2017-08-08T21:48:35.951Z,96484.16
2017-08-08T21:51:01.908Z,96490.96
2017-08-08T21:53:27.728Z,96499.45
2017-08-08T21:55:53.632Z,96506.42
2017-08-08T21:58:19.532Z,96496.53
2017-08-08T22:00:45.359Z,96505.61
2017-08-08T22:03:11.219Z,96508.19
2017-08-08T22:05:37.044Z,96509.13
2017-08-08T22:08:02.896Z,96506.45
2017-08-08T22:10:28.816Z,96505.05
2017-08-08T22:12:54.655Z,96515.03
2017-08-08T22:15:20.512Z,96517.53
2017-08-08T22:17:46.387Z,96507.82
2017-08-08T22:20:12.349Z,96508.11
2017-08-08T22:22:38.173Z,96503.81
2017-08-08T22:25:03.986Z,96504.72
2017-08-08T22:27:29.879Z,96506.32
2017-08-08T22:29:55.819Z,96510.32
2017-08-08T22:32:21.643Z,96511.72
2017-08-08T22:34:47.539Z,96513.28
2017-08-08T22:37:13.485Z,96512.78
2017-08-08T22:39:39.300Z,96514.17
2017-08-08T22:42:05.185Z,96504.11
2017-08-08T22:44:31.200Z,96512.16
2017-08-08T22:46:57.020Z,96514.98
2017-08-08T22:49:22.980Z,96520.03
2017-08-08T22:51:48.796Z,96519.13
2017-08-08T22:54:14.667Z,96519.94
2017-08-08T22:56:40.528Z,96520.05
2017-08-08T22:59:06.439Z,96522.61
2017-08-08T23:01:32.287Z,96519.02
2017-08-08T23:03:58.159Z,96510.85
2017-08-08T23:06:24.030Z,96518.09
2017-08-08T23:08:49.996Z,96513.95
2017-08-08T23:11:15.810Z,96515.53
2017-08-08T23:13:41.657Z,96516.16
2017-08-08T23:16:07.602Z,96502.08
2017-08-08T23:18:33.420Z,96500.22
2017-08-08T23:20:59.273Z,96498.20
2017-08-08T23:23:25.130Z,96499.28
2017-08-08T23:25:51.079Z,96525.06
2017-08-08T23:31:17.901Z,96527.98
2017-08-08T23:33:48.590Z,96533.95
2017-08-08T23:36:16.872Z,96530.55
2017-08-08T23:38:46.327Z,96529.88
2017-08-08T23:41:16.039Z,96545.84
2017-08-08T23:43:45.625Z,96556.21
2017-08-08T23:46:22.494Z,96551.89
2017-08-08T23:49:06.695Z,96536.07
2017-08-08T23:51:36.510Z,96536.77
2017-08-08T23:54:12.184Z,96548.81
2017-08-08T23:56:41.576Z,96548.14
2017-08-08T23:59:20.640Z,96552.89
